EW4496 Weather Reports


Display with metric or nautical units.
time (UTC)temp
F
wind
direction
speed
MPH
gust
MPH
rain 1hr
in
rain 24hr
in
rain mn
in
humidity
%
barometer
mb
20240523133024 54 77 0.0 0.0 0.00 0.00 0.00 82 1010.1
20240523131505 53 77 0.0 0.0 0.00 0.00 0.00 84 1010.1
20240523130049 52 77 0.0 0.0 0.00 0.00 0.00 85 1010.1
20240523124531 52 77 0.0 0.0 0.00 0.00 0.00 83 1010.0
20240523123003 53 77 0.0 0.0 0.00 0.00 0.00 84 1009.9
20240523121549 53 77 0.0 0.0 0.00 0.00 0.00 82 1010.0
20240523120028 53 77 0.0 0.0 0.00 0.00 0.00 82 1010.1
20240523114505 54 77 0.0 0.0 0.00 0.00 0.00 79 1010.1
20240523113050 54 77 0.0 0.0 0.00 0.00 0.00 79 1010.1
20240523111532 55 77 0.0 0.0 0.00 0.00 0.00 78 1010.1
20240523110113 55 77 0.0 1.0 0.00 0.00 0.00 78 1010.2
20240523104529 55 77 0.0 0.0 0.00 0.00 0.00 78 1010.1
20240523103013 55 77 0.0 0.0 0.00 0.00 0.00 78 1010.2
20240523101556 56 77 0.0 0.0 0.00 0.00 0.00 74 1010.1
20240523100027 56 77 0.0 0.0 0.00 0.00 0.00 71 1010.0
20240523094511 57 77 0.0 0.0 0.00 0.00 0.00 71 1009.9
20240523093100 57 77 0.0 0.0 0.00 0.00 0.00 71 1010.0
20240523091539 57 77 0.0 0.0 0.00 0.00 0.00 70 1010.0
20240523090004 57 77 0.0 0.0 0.00 0.00 0.00 70 1010.0
20240523084618 57 77 0.0 2.0 0.00 0.00 0.00 70 1009.9
20240523083037 58 60 0.0 1.0 0.00 0.00 0.00 70 1009.9
20240523081518 59 196 0.0 0.0 0.00 0.00 0.00 67 1009.9
20240523080001 58 89 0.0 0.0 0.00 0.00 0.00 69 1009.9
20240523074550 58 89 0.0 2.0 0.00 0.00 0.00 69 1009.9
20240523073025 60 72 0.0 2.0 0.00 0.00 0.00 67 1009.9
20240523071507 60 85 1.0 4.0 0.00 0.00 0.00 66 1010.0
20240523070103 61 79 1.0 3.0 0.00 0.00 0.00 65 1010.0
20240523064559 61 91 0.0 3.0 0.00 0.00 0.00 65 1010.1
20240523063021 62 79 0.0 3.0 0.00 0.00 0.00 65 1010.1
20240523061603 62 72 0.0 4.0 0.00 0.00 0.00 64 1010.0
20240523060045 64 92 1.0 3.0 0.00 0.00 0.00 63 1010.0
20240523054530 64 65 1.0 4.0 0.00 0.00 0.00 63 1010.0
20240523053013 65 66 1.0 3.0 0.00 0.00 0.00 61 1009.9
20240523051558 65 72 1.0 3.0 0.00 0.00 0.00 62 1009.9
20240523050043 64 251 0.0 2.0 0.00 0.00 0.00 63 1009.7
20240523044532 65 185 0.0 0.0 0.00 0.00 0.00 60 1009.4
20240523043017 67 214 0.0 0.0 0.00 0.00 0.00 58 1009.2
20240523041607 69 214 0.0 0.0 0.00 0.00 0.00 54 1009.1
20240523040041 70 224 0.0 0.0 0.00 0.00 0.00 52 1008.9
20240523034521 72 224 0.0 0.0 0.00 0.00 0.00 48 1008.9
20240523033042 74 210 0.0 1.0 0.00 0.00 0.00 46 1008.9
20240523031533 76 208 0.0 2.0 0.00 0.00 0.00 44 1008.9
20240523030035 78 209 0.0 3.0 0.00 0.00 0.00 41 1009.0
20240523024554 80 205 0.0 4.0 0.00 0.00 0.00 39 1009.0
20240523023041 81 176 0.0 6.0 0.00 0.00 0.00 38 1008.8
20240523021525 82 237 2.0 10.0 0.00 0.00 0.00 37 1008.7
20240523020008 83 211 0.0 6.0 0.00 0.00 0.00 35 1008.7
20240523014540 84 179 1.0 9.0 0.00 0.00 0.00 34 1008.6
20240523013024 85 243 2.0 8.0 0.00 0.00 0.00 33 1008.6
20240523011508 87 205 1.0 6.0 0.00 0.00 0.00 25 1008.5
20240523010049 88 208 1.0 5.0 0.00 0.00 0.00 24 1008.7
20240523004531 87 109 0.0 4.0 0.00 0.00 0.00 23 1008.8
20240523003014 87 239 1.0 6.0 0.00 0.00 0.00 24 1008.8
20240523001633 86 200 2.0 10.0 0.00 0.00 0.00 25 1008.9
20240523000047 85 261 1.0 7.0 0.00 0.00 0.00 27 1009.0
20240522234517 85 244 0.0 5.0 0.00 0.00 0.00 27 1009.2
20240522233057 85 232 3.0 7.0 0.00 0.00 0.00 27 1009.3
20240522231541 85 90 0.0 3.0 0.00 0.00 0.00 30 1009.4
20240522230020 84 269 2.0 9.0 0.00 0.00 0.00 30 1009.6
20240522224615 84 266 0.0 3.0 0.00 0.00 0.00 31 1009.8
20240522223048 84 227 3.0 8.0 0.00 0.00 0.00 30 1010.1
20240522221536 83 207 1.0 5.0 0.00 0.00 0.00 31 1010.1
20240522220053 83 264 2.0 7.0 0.00 0.00 0.00 33 1010.3
20240522214537 83 243 4.0 9.0 0.00 0.00 0.00 34 1010.5
20240522213009 82 323 0.0 4.0 0.00 0.00 0.00 35 1010.5
20240522211544 83 231 0.0 4.0 0.00 0.00 0.00 36 1010.7
20240522210038 81 112 4.0 7.0 0.00 0.00 0.00 36 1010.9
20240522204509 80 265 1.0 3.0 0.00 0.00 0.00 36 1011.1
20240522203101 81 101 0.0 2.0 0.00 0.00 0.00 38 1011.3
20240522201535 80 68 0.0 5.0 0.00 0.00 0.00 41 1011.3
20240522200028 79 49 2.0 6.0 0.00 0.00 0.00 41 1011.5
20240522194602 80 197 0.0 2.0 0.00 0.00 0.00 41 1011.7
20240522193046 78 292 0.0 5.0 0.00 0.00 0.00 42 1011.9
20240522191529 77 50 0.0 6.0 0.00 0.00 0.00 42 1012.1
20240522190008 76 10 1.0 5.0 0.00 0.00 0.00 44 1012.0
20240522184537 77 181 0.0 5.0 0.00 0.00 0.00 45 1012.1
20240522183019 75 117 2.0 5.0 0.00 0.00 0.00 46 1012.0
20240522181502 74 76 1.0 5.0 0.00 0.00 0.00 49 1011.9
20240522180047 73 70 0.0 6.0 0.00 0.00 0.00 50 1011.9
20240522174620 73 47 2.0 4.0 0.00 0.00 0.00 47 1011.9
20240522173101 72 87 0.0 6.0 0.00 0.00 0.00 49 1012.0
20240522171548 71 37 1.0 4.0 0.00 0.00 0.00 51 1012.1
20240522170037 71 77 0.0 2.0 0.00 0.00 0.00 51 1012.1
20240522164510 70 151 2.0 6.0 0.00 0.00 0.00 50 1012.2
20240522163057 70 20 0.0 3.0 0.00 0.00 0.00 51 1012.3
20240522161544 69 116 0.0 3.0 0.00 0.00 0.00 53 1012.3
20240522160017 67 354 0.0 6.0 0.00 0.00 0.00 55 1012.2
20240522154600 67 103 0.0 4.0 0.00 0.00 0.00 56 1012.1
20240522153046 68 81 0.0 2.0 0.00 0.00 0.00 54 1012.1
20240522151522 65 54 0.0 4.0 0.00 0.00 0.00 57 1012.0
20240522150004 65 243 0.0 3.0 0.00 0.00 0.00 58 1012.0
20240522144548 63 245 0.0 2.0 0.00 0.00 0.00 59 1012.0
20240522143022 61 89 0.0 4.0 0.00 0.00 0.00 60 1011.8
20240522141506 60 74 2.0 4.0 0.00 0.00 0.00 59 1011.4
20240522140057 59 75 0.0 3.0 0.00 0.00 0.00 64 1011.3
20240522134538 57 57 1.0 3.0 0.00 0.00 0.00 67 1011.3